createdAt,value
2018-09-30T00:01:01.099Z,13.45
2018-09-30T00:03:35.386Z,6.42
2018-09-30T00:06:09.824Z,7.90
2018-09-30T00:08:44.127Z,7.60
2018-09-30T00:11:18.608Z,11.40
2018-09-30T00:13:52.904Z,10.05
2018-09-30T00:16:27.328Z,5.37
2018-09-30T00:19:01.912Z,8.23
2018-09-30T00:21:36.252Z,3.80
2018-09-30T00:24:16.225Z,7.80
2018-09-30T00:26:55.798Z,5.78
2018-09-30T00:29:30.862Z,6.97
2018-09-30T00:32:05.256Z,9.98
2018-09-30T00:34:39.660Z,44.25
2018-09-30T00:37:14.055Z,60.33
2018-09-30T00:39:48.444Z,21.35
2018-09-30T00:42:22.927Z,19.00
2018-09-30T00:44:57.276Z,13.72
2018-09-30T00:47:31.703Z,5.92
2018-09-30T00:50:06.355Z,8.18
2018-09-30T00:52:40.748Z,5.78
2018-09-30T00:55:15.042Z,7.60
2018-09-30T00:57:49.450Z,5.58
2018-09-30T01:00:23.731Z,6.65
2018-09-30T01:02:58.980Z,6.40
2018-09-30T01:05:33.392Z,4.85
2018-09-30T01:08:07.802Z,10.70
2018-09-30T01:10:42.036Z,5.78
2018-09-30T01:13:16.565Z,7.85
2018-09-30T01:15:51.060Z,5.00
2018-09-30T01:18:25.499Z,6.40
2018-09-30T01:20:59.887Z,10.30
2018-09-30T01:23:34.423Z,6.30
2018-09-30T01:26:08.749Z,7.58
2018-09-30T01:28:43.168Z,6.62
2018-09-30T01:31:17.652Z,11.40
2018-09-30T01:33:51.999Z,15.30
2018-09-30T01:36:26.475Z,34.58
2018-09-30T01:39:00.832Z,33.92
2018-09-30T01:41:35.393Z,50.38
2018-09-30T01:44:09.815Z,11.70
2018-09-30T01:46:44.312Z,5.78
2018-09-30T01:49:18.755Z,7.33
2018-09-30T01:52:04.508Z,4.75
2018-09-30T01:54:38.830Z,11.15
2018-09-30T01:57:13.137Z,6.60
2018-09-30T01:59:47.574Z,6.35
2018-09-30T02:02:22.072Z,5.33
2018-09-30T02:04:56.431Z,9.63
2018-09-30T02:07:30.830Z,12.68
2018-09-30T02:10:05.416Z,7.45
2018-09-30T02:12:39.807Z,6.37
2018-09-30T02:15:14.284Z,11.83
2018-09-30T02:17:48.595Z,8.15
2018-09-30T02:20:23.044Z,10.23
2018-09-30T02:22:57.431Z,7.37
2018-09-30T02:25:31.891Z,18.45
2018-09-30T02:28:06.400Z,10.72
2018-09-30T02:30:40.802Z,7.35
2018-09-30T02:33:15.275Z,31.50
2018-09-30T02:35:49.540Z,29.77
2018-09-30T02:38:24.003Z,21.25
2018-09-30T02:40:58.520Z,16.40
2018-09-30T02:43:33.113Z,8.23
2018-09-30T02:46:07.400Z,5.95
2018-09-30T02:48:41.622Z,5.53
2018-09-30T02:51:16.083Z,5.35
2018-09-30T02:53:50.515Z,11.48
2018-09-30T02:56:24.824Z,6.15
2018-09-30T02:58:59.125Z,5.80
2018-09-30T03:01:33.542Z,7.10
2018-09-30T03:04:07.931Z,7.17
2018-09-30T03:06:47.700Z,4.15
2018-09-30T03:09:22.005Z,5.50
2018-09-30T03:11:56.505Z,12.20
2018-09-30T03:14:30.889Z,4.28
2018-09-30T03:17:05.417Z,5.70
2018-09-30T03:19:39.940Z,5.17
2018-09-30T03:22:14.224Z,4.60
2018-09-30T03:24:48.617Z,7.05
2018-09-30T03:27:23.031Z,9.78
2018-09-30T03:29:57.791Z,5.17
2018-09-30T03:32:32.259Z,10.05
2018-09-30T03:35:06.601Z,44.33
2018-09-30T03:37:41.308Z,48.38
2018-09-30T03:40:15.613Z,30.75
2018-09-30T03:42:49.876Z,22.30
2018-09-30T03:45:24.210Z,5.05
2018-09-30T03:47:58.586Z,8.95
2018-09-30T03:50:32.875Z,5.50
2018-09-30T03:53:07.207Z,5.22
2018-09-30T03:55:41.635Z,7.20
2018-09-30T03:58:16.120Z,6.15
2018-09-30T04:00:50.572Z,12.40
2018-09-30T04:03:25.042Z,10.35
2018-09-30T04:05:59.335Z,11.38
2018-09-30T04:08:33.584Z,16.07
2018-09-30T04:11:07.959Z,10.00
2018-09-30T04:13:42.399Z,10.55
2018-09-30T04:16:16.780Z,9.30
2018-09-30T04:18:51.115Z,10.10
2018-09-30T04:21:25.499Z,13.45
2018-09-30T04:24:05.403Z,8.00
2018-09-30T04:26:40.845Z,10.68
2018-09-30T04:29:15.108Z,6.08
2018-09-30T04:31:49.404Z,21.25
2018-09-30T04:34:23.733Z,19.87
2018-09-30T04:36:58.248Z,46.30
2018-09-30T04:39:32.835Z,28.50
2018-09-30T04:42:07.161Z,26.70
2018-09-30T04:44:41.551Z,5.78
2018-09-30T04:47:15.840Z,5.40
2018-09-30T04:49:50.169Z,9.20
2018-09-30T04:52:24.418Z,11.55
2018-09-30T04:54:58.831Z,4.22
2018-09-30T04:57:33.290Z,5.62
2018-09-30T05:00:07.733Z,6.50
2018-09-30T05:02:42.242Z,4.80
2018-09-30T05:05:16.626Z,4.97
2018-09-30T05:07:51.036Z,6.15
2018-09-30T05:10:25.491Z,6.20
2018-09-30T05:12:59.789Z,9.33
2018-09-30T05:15:34.044Z,4.80
2018-09-30T05:18:08.459Z,6.25
2018-09-30T05:20:42.939Z,6.60
2018-09-30T05:23:17.379Z,7.05
2018-09-30T05:25:51.791Z,6.53
2018-09-30T05:28:26.333Z,5.95
2018-09-30T05:31:00.692Z,6.95
2018-09-30T05:33:35.079Z,15.23
2018-09-30T05:36:09.392Z,37.33
2018-09-30T05:38:43.754Z,42.95
2018-09-30T05:41:18.185Z,46.28
2018-09-30T05:43:52.432Z,26.82
2018-09-30T05:46:26.796Z,16.62
2018-09-30T05:49:01.172Z,5.70
2018-09-30T05:51:35.626Z,8.63
2018-09-30T05:54:09.935Z,10.32
2018-09-30T05:56:44.244Z,5.05
2018-09-30T05:59:18.510Z,7.50
2018-09-30T06:01:52.922Z,11.12
2018-09-30T06:04:27.342Z,3.12
2018-09-30T06:07:01.777Z,6.80
2018-09-30T06:09:36.431Z,5.40
2018-09-30T06:12:10.809Z,7.45
2018-09-30T06:14:45.271Z,6.15
2018-09-30T06:17:26.440Z,9.63
2018-09-30T06:20:00.991Z,9.40
2018-09-30T06:22:35.676Z,11.43
2018-09-30T06:25:10.075Z,8.33
2018-09-30T06:27:44.674Z,8.83
2018-09-30T06:30:19.217Z,11.18
2018-09-30T06:32:53.665Z,10.00
2018-09-30T06:35:28.055Z,16.50
2018-09-30T06:38:02.757Z,47.30
2018-09-30T06:40:37.376Z,37.30
2018-09-30T06:43:11.784Z,18.98
2018-09-30T06:45:46.233Z,13.62
2018-09-30T06:48:20.806Z,9.75
2018-09-30T06:50:55.628Z,13.13
2018-09-30T06:53:29.950Z,9.80
2018-09-30T06:56:04.390Z,9.65
2018-09-30T06:58:38.846Z,9.23
2018-09-30T07:01:13.247Z,12.33
2018-09-30T07:03:47.993Z,15.32
2018-09-30T07:06:22.597Z,14.58
2018-09-30T07:08:57.255Z,16.67
2018-09-30T07:11:31.770Z,13.58
2018-09-30T07:14:06.387Z,15.83
2018-09-30T07:16:40.993Z,17.70
2018-09-30T07:19:15.551Z,22.98
2018-09-30T07:21:49.966Z,19.25
2018-09-30T07:24:24.447Z,8.38
2018-09-30T07:26:59.132Z,17.32
2018-09-30T07:29:33.835Z,13.18
2018-09-30T07:32:08.314Z,11.53
2018-09-30T07:34:42.892Z,18.67
2018-09-30T07:37:17.575Z,39.53
2018-09-30T07:39:51.988Z,54.77
2018-09-30T07:42:26.480Z,24.18
2018-09-30T07:45:00.899Z,21.95
2018-09-30T07:47:35.455Z,10.95
2018-09-30T07:50:10.043Z,19.80
2018-09-30T07:52:44.628Z,11.53
2018-09-30T07:55:19.285Z,13.18
2018-09-30T07:57:54.003Z,11.93
2018-09-30T08:00:28.572Z,12.88
2018-09-30T08:03:03.173Z,12.13
2018-09-30T08:05:37.874Z,15.50
2018-09-30T08:08:12.427Z,14.30
2018-09-30T08:10:47.048Z,11.65
2018-09-30T08:13:21.578Z,15.85
2018-09-30T08:15:56.182Z,11.35
2018-09-30T08:18:30.798Z,10.18
2018-09-30T08:21:05.505Z,16.82
2018-09-30T08:23:40.179Z,17.87
2018-09-30T08:26:14.712Z,13.00
2018-09-30T08:28:49.302Z,13.45
2018-09-30T08:31:23.784Z,17.27
2018-09-30T08:33:58.710Z,18.25
2018-09-30T08:36:33.452Z,28.85
2018-09-30T08:39:08.690Z,60.90
2018-09-30T08:41:43.262Z,128.82
2018-09-30T08:44:17.945Z,45.73
2018-09-30T08:46:52.724Z,14.70
2018-09-30T08:49:27.199Z,14.98
2018-09-30T08:52:01.553Z,23.27
2018-09-30T08:54:36.049Z,14.75
2018-09-30T08:57:10.730Z,15.38
2018-09-30T08:59:45.171Z,15.35
2018-09-30T09:02:19.660Z,15.93
2018-09-30T09:04:54.088Z,19.23
2018-09-30T09:07:28.536Z,20.95
2018-09-30T09:10:03.004Z,25.85
2018-09-30T09:12:37.508Z,21.42
2018-09-30T09:15:12.234Z,22.80
2018-09-30T09:17:46.709Z,21.82
2018-09-30T09:20:21.172Z,25.15
2018-09-30T09:22:55.873Z,25.60
2018-09-30T09:25:30.459Z,27.40
2018-09-30T09:28:05.286Z,26.35
2018-09-30T09:30:39.800Z,26.70
2018-09-30T09:33:14.246Z,20.50
2018-09-30T09:35:48.719Z,39.05
2018-09-30T09:38:23.024Z,27.48
2018-09-30T09:40:57.464Z,64.12
2018-09-30T09:43:31.771Z,43.68
2018-09-30T09:46:06.291Z,44.83
2018-09-30T09:48:40.673Z,27.60
2018-09-30T09:51:14.976Z,27.25
2018-09-30T09:53:49.444Z,18.98
2018-09-30T09:56:23.703Z,18.32
2018-09-30T09:58:58.148Z,15.45
2018-09-30T10:01:32.412Z,36.38
2018-09-30T10:04:06.701Z,13.45
2018-09-30T10:06:41.121Z,54.95
2018-09-30T10:09:15.405Z,51.70
2018-09-30T10:11:49.672Z,67.30
2018-09-30T10:14:24.147Z,21.60
2018-09-30T10:16:58.444Z,12.45
2018-09-30T10:19:33.154Z,13.95
2018-09-30T10:22:07.687Z,16.80
2018-09-30T10:24:42.071Z,16.35
2018-09-30T10:27:16.640Z,21.10
2018-09-30T10:29:50.932Z,11.73
2018-09-30T10:32:25.690Z,12.58
2018-09-30T10:35:00.264Z,11.93
2018-09-30T10:37:34.671Z,12.68
2018-09-30T10:40:08.943Z,17.90
2018-09-30T10:42:43.585Z,14.13
2018-09-30T10:45:18.250Z,15.30
2018-09-30T10:47:52.740Z,12.88
2018-09-30T10:50:27.008Z,14.70
2018-09-30T10:53:01.261Z,16.02
2018-09-30T10:55:35.576Z,14.05
2018-09-30T10:58:10.254Z,18.10
2018-09-30T11:00:44.716Z,12.00
2018-09-30T11:03:19.031Z,11.20
2018-09-30T11:05:53.400Z,47.13
2018-09-30T11:08:27.794Z,42.48
2018-09-30T11:11:02.157Z,47.73
2018-09-30T11:13:36.572Z,31.33
2018-09-30T11:16:10.890Z,20.00
2018-09-30T11:18:45.450Z,12.10
2018-09-30T11:21:19.959Z,12.15
2018-09-30T11:23:54.403Z,10.43
2018-09-30T11:26:28.890Z,11.50
2018-09-30T11:29:03.487Z,11.60
2018-09-30T11:31:37.977Z,10.72
2018-09-30T11:34:12.412Z,9.13
2018-09-30T11:36:46.875Z,10.53
2018-09-30T11:39:21.329Z,10.08
2018-09-30T11:41:55.583Z,9.78
2018-09-30T11:44:30.139Z,9.38
2018-09-30T11:47:04.567Z,10.35
2018-09-30T11:49:39.027Z,10.68
2018-09-30T11:52:13.372Z,7.50
2018-09-30T11:54:47.671Z,8.70
2018-09-30T11:57:22.144Z,11.83
2018-09-30T11:59:56.565Z,9.88
2018-09-30T12:02:30.856Z,7.80
2018-09-30T12:05:05.268Z,12.80
2018-09-30T12:07:39.772Z,12.15
2018-09-30T12:10:14.255Z,36.13
2018-09-30T12:12:48.973Z,46.37
2018-09-30T12:15:23.647Z,17.80
2018-09-30T12:17:58.225Z,12.25
2018-09-30T12:20:32.613Z,11.00
2018-09-30T12:23:07.331Z,9.08
2018-09-30T12:25:41.923Z,15.15
2018-09-30T12:28:16.286Z,12.00
2018-09-30T12:30:50.878Z,11.95
2018-09-30T12:33:25.159Z,8.80
2018-09-30T12:35:59.613Z,9.73
2018-09-30T12:38:33.999Z,5.20
2018-09-30T12:41:08.659Z,5.83
2018-09-30T12:43:43.028Z,5.95
2018-09-30T12:46:17.735Z,8.18
2018-09-30T12:48:52.143Z,8.23
2018-09-30T12:51:26.471Z,8.68
2018-09-30T12:54:00.723Z,7.97
2018-09-30T12:56:35.076Z,9.38
2018-09-30T12:59:09.335Z,9.00
2018-09-30T13:01:43.902Z,6.03
2018-09-30T13:04:18.346Z,8.48
2018-09-30T13:06:52.664Z,6.15
2018-09-30T13:09:27.083Z,22.73
2018-09-30T13:12:01.562Z,44.33
2018-09-30T13:14:36.144Z,57.78
2018-09-30T13:17:10.659Z,33.53
2018-09-30T13:19:45.212Z,9.35
2018-09-30T13:22:19.576Z,6.20
2018-09-30T13:24:53.927Z,6.55
2018-09-30T13:27:28.379Z,5.70
2018-09-30T13:30:02.785Z,5.15
2018-09-30T13:32:37.255Z,8.38
2018-09-30T13:35:12.082Z,6.40
2018-09-30T13:37:46.624Z,5.50
2018-09-30T13:40:20.994Z,4.67
2018-09-30T13:42:55.412Z,5.35
2018-09-30T13:45:29.775Z,9.18
2018-09-30T13:48:04.213Z,9.20
2018-09-30T13:50:38.515Z,6.30
2018-09-30T13:53:12.935Z,4.30
2018-09-30T13:55:47.578Z,4.92
2018-09-30T13:58:22.004Z,10.32
2018-09-30T14:00:56.637Z,6.17
2018-09-30T14:03:30.970Z,6.25
2018-09-30T14:06:05.247Z,6.83
2018-09-30T14:08:39.589Z,23.20
2018-09-30T14:11:14.096Z,16.27
2018-09-30T14:13:48.487Z,48.30
2018-09-30T14:16:22.871Z,55.95
2018-09-30T14:18:57.306Z,11.22
2018-09-30T14:21:31.699Z,7.83
2018-09-30T14:24:06.252Z,5.87
2018-09-30T14:26:40.660Z,7.00
2018-09-30T14:29:15.017Z,7.58
2018-09-30T14:31:49.452Z,6.95
2018-09-30T14:34:23.740Z,10.55
2018-09-30T14:36:58.079Z,6.08
2018-09-30T14:39:32.447Z,6.12
2018-09-30T14:42:06.952Z,6.00
2018-09-30T14:44:41.339Z,8.00
2018-09-30T14:47:15.907Z,10.55
2018-09-30T14:49:50.500Z,7.90
2018-09-30T14:52:24.969Z,5.22
2018-09-30T14:54:59.476Z,7.90
2018-09-30T14:57:33.923Z,7.80
2018-09-30T15:00:08.471Z,11.83
2018-09-30T15:02:43.020Z,5.80
2018-09-30T15:05:17.354Z,9.93
2018-09-30T15:07:51.813Z,12.35
2018-09-30T15:10:26.321Z,19.00
2018-09-30T15:13:00.640Z,103.32
2018-09-30T15:15:34.970Z,86.17
2018-09-30T15:18:09.520Z,27.10
2018-09-30T15:20:44.104Z,19.25
2018-09-30T15:23:18.505Z,7.67
2018-09-30T15:25:52.932Z,9.45
2018-09-30T15:28:27.286Z,9.93
2018-09-30T15:31:01.640Z,8.25
2018-09-30T15:36:22.152Z,8.33
2018-09-30T15:38:56.664Z,5.85
2018-09-30T15:41:30.989Z,5.65
2018-09-30T15:44:05.415Z,6.65
2018-09-30T15:46:39.860Z,7.55
2018-09-30T15:49:14.291Z,5.33
2018-09-30T15:51:48.680Z,5.95
2018-09-30T15:54:23.007Z,5.90
2018-09-30T15:56:57.413Z,8.70
2018-09-30T15:59:31.759Z,12.88
2018-09-30T16:02:06.392Z,7.33
2018-09-30T16:04:40.750Z,6.55
2018-09-30T16:07:15.153Z,13.88
2018-09-30T16:09:49.404Z,40.23
2018-09-30T16:12:23.775Z,42.93
2018-09-30T16:14:58.178Z,45.12
2018-09-30T16:17:32.648Z,17.37
2018-09-30T16:20:07.104Z,9.48
2018-09-30T16:22:41.586Z,5.08
2018-09-30T16:25:16.020Z,8.63
2018-09-30T16:27:50.521Z,11.83
2018-09-30T16:30:24.790Z,7.55
2018-09-30T16:32:59.172Z,5.37
2018-09-30T16:35:33.608Z,13.80
2018-09-30T16:38:08.061Z,7.78
2018-09-30T16:40:42.323Z,8.15
2018-09-30T16:43:17.016Z,10.58
2018-09-30T16:45:51.523Z,11.38
2018-09-30T16:48:25.964Z,9.95
2018-09-30T16:51:00.411Z,11.95
2018-09-30T16:53:34.775Z,11.60
2018-09-30T16:56:09.289Z,10.25
2018-09-30T16:58:43.704Z,13.40
2018-09-30T17:01:18.024Z,11.38
2018-09-30T17:03:52.432Z,13.53
2018-09-30T17:06:26.703Z,15.23
2018-09-30T17:09:01.013Z,22.35
2018-09-30T17:11:35.647Z,133.50
2018-09-30T17:14:09.951Z,62.83
2018-09-30T17:16:44.615Z,39.92
2018-09-30T17:19:19.107Z,28.70
2018-09-30T17:21:53.581Z,24.92
2018-09-30T17:24:28.117Z,15.05
2018-09-30T17:27:02.372Z,14.75
2018-09-30T17:29:36.667Z,12.75
2018-09-30T17:32:11.028Z,17.32
2018-09-30T17:34:45.471Z,19.50
2018-09-30T17:37:19.791Z,14.15
2018-09-30T17:39:54.540Z,13.13
2018-09-30T17:42:28.968Z,20.25
2018-09-30T17:45:03.260Z,14.25
2018-09-30T17:47:37.555Z,15.15
2018-09-30T17:50:11.935Z,15.32
2018-09-30T17:52:46.396Z,31.02
2018-09-30T17:55:20.751Z,38.35
2018-09-30T17:57:55.083Z,18.57
2018-09-30T18:00:29.651Z,16.00
2018-09-30T18:03:03.983Z,18.90
2018-09-30T18:05:38.459Z,15.93
2018-09-30T18:08:12.721Z,21.77
2018-09-30T18:10:47.290Z,24.30
2018-09-30T18:13:21.743Z,26.52
2018-09-30T18:15:56.136Z,62.03
2018-09-30T18:18:30.484Z,56.80
2018-09-30T18:21:04.803Z,44.50
2018-09-30T18:23:39.134Z,19.92
2018-09-30T18:26:13.475Z,20.62
2018-09-30T18:28:47.887Z,18.82
2018-09-30T18:31:22.340Z,21.80
2018-09-30T18:33:56.732Z,18.82
2018-09-30T18:36:31.256Z,22.98
2018-09-30T18:39:08.336Z,13.70
2018-09-30T18:41:42.872Z,17.15
2018-09-30T18:44:17.560Z,22.00
2018-09-30T18:46:52.093Z,19.82
2018-09-30T18:49:26.508Z,17.67
2018-09-30T18:52:00.808Z,20.88
2018-09-30T18:54:35.166Z,22.73
2018-09-30T18:57:09.673Z,18.07
2018-09-30T18:59:44.019Z,20.85
2018-09-30T19:02:18.411Z,24.25
2018-09-30T19:04:52.722Z,21.60
2018-09-30T19:07:27.043Z,18.37
2018-09-30T19:10:01.489Z,21.35
2018-09-30T19:12:35.792Z,25.92
2018-09-30T19:15:10.221Z,32.48
2018-09-30T19:17:44.616Z,40.45
2018-09-30T19:20:19.721Z,60.92
2018-09-30T19:22:54.132Z,74.15
2018-09-30T19:25:28.453Z,42.03
2018-09-30T19:28:02.924Z,29.32
2018-09-30T19:30:37.279Z,26.20
2018-09-30T19:33:11.672Z,28.80
2018-09-30T19:35:49.104Z,36.33
2018-09-30T19:38:23.559Z,27.77
2018-09-30T19:40:57.940Z,33.63
2018-09-30T19:43:32.471Z,28.45
2018-09-30T19:46:07.243Z,25.75
2018-09-30T19:48:41.860Z,41.50
2018-09-30T19:51:16.147Z,30.02
2018-09-30T19:53:50.619Z,27.67
2018-09-30T19:56:24.984Z,31.87
2018-09-30T19:58:59.566Z,22.73
2018-09-30T20:01:33.995Z,26.82
2018-09-30T20:04:08.404Z,28.27
2018-09-30T20:06:43.188Z,18.98
2018-09-30T20:09:17.835Z,13.15
2018-09-30T20:11:52.112Z,17.60
2018-09-30T20:14:26.677Z,22.02
2018-09-30T20:17:01.171Z,31.37
2018-09-30T20:19:35.846Z,92.90
2018-09-30T20:22:11.364Z,66.80
2018-09-30T20:24:46.155Z,44.00
2018-09-30T20:27:20.476Z,15.28
2018-09-30T20:29:54.838Z,16.05
2018-09-30T20:32:29.396Z,14.60
2018-09-30T20:35:03.861Z,21.62
2018-09-30T20:37:38.297Z,20.27
2018-09-30T20:40:13.768Z,18.12
2018-09-30T20:42:48.123Z,23.92
2018-09-30T20:45:22.503Z,21.40
2018-09-30T20:47:56.923Z,19.48
2018-09-30T20:50:31.337Z,22.77
2018-09-30T20:53:06.756Z,20.35
2018-09-30T20:55:41.203Z,26.40
2018-09-30T20:58:15.552Z,18.48
2018-09-30T21:00:49.947Z,20.97
2018-09-30T21:03:24.255Z,17.23
2018-09-30T21:06:20.463Z,25.48
2018-09-30T21:08:54.731Z,28.38
2018-09-30T21:11:29.497Z,36.45
2018-09-30T21:14:04.430Z,38.40
2018-09-30T21:16:39.015Z,131.25
2018-09-30T21:19:13.765Z,121.53
2018-09-30T21:21:48.105Z,74.67
2018-09-30T21:24:22.790Z,35.35
2018-09-30T21:26:57.483Z,20.08
2018-09-30T21:29:31.828Z,19.87
2018-09-30T21:32:06.454Z,14.15
2018-09-30T21:34:41.457Z,18.25
2018-09-30T21:37:16.071Z,33.30
2018-09-30T21:39:51.157Z,23.40
2018-09-30T21:42:25.844Z,21.95
2018-09-30T21:45:02.502Z,18.15
2018-09-30T21:47:37.067Z,18.37
2018-09-30T21:50:11.506Z,22.90
2018-09-30T21:52:46.143Z,21.95
2018-09-30T21:55:20.902Z,18.32
2018-09-30T21:57:55.532Z,15.68
2018-09-30T22:00:35.853Z,24.57
2018-09-30T22:03:12.950Z,24.95
2018-09-30T22:05:47.906Z,17.75
2018-09-30T22:08:22.503Z,25.02
2018-09-30T22:10:57.070Z,36.25
2018-09-30T22:13:31.634Z,98.82
2018-09-30T22:16:06.351Z,61.75
2018-09-30T22:18:40.677Z,56.95
2018-09-30T22:21:15.308Z,17.35
2018-09-30T22:23:49.614Z,22.45
2018-09-30T22:26:24.257Z,18.40
2018-09-30T22:28:58.731Z,20.15
2018-09-30T22:31:32.995Z,20.62
2018-09-30T22:34:07.401Z,19.75
2018-09-30T22:36:41.791Z,21.87
2018-09-30T22:39:16.251Z,19.02
2018-09-30T22:41:50.675Z,24.98
2018-09-30T22:44:25.111Z,19.27
2018-09-30T22:46:59.467Z,17.42
2018-09-30T22:49:34.041Z,17.20
2018-09-30T22:52:08.807Z,21.37
2018-09-30T22:54:43.356Z,20.75
2018-09-30T22:57:17.762Z,17.32
2018-09-30T22:59:52.447Z,24.57
2018-09-30T23:02:26.915Z,19.30
2018-09-30T23:05:01.500Z,19.50
2018-09-30T23:07:35.908Z,22.22
2018-09-30T23:10:11.755Z,28.52
2018-09-30T23:12:46.224Z,23.25
2018-09-30T23:15:21.082Z,23.95
2018-09-30T23:17:55.572Z,17.82
2018-09-30T23:20:30.592Z,21.20
2018-09-30T23:23:05.313Z,22.17
2018-09-30T23:25:40.426Z,25.88
2018-09-30T23:28:14.991Z,25.57
2018-09-30T23:30:49.623Z,20.92
2018-09-30T23:33:24.130Z,24.67
2018-09-30T23:35:58.542Z,44.05
2018-09-30T23:38:33.063Z,34.05
2018-09-30T23:41:07.556Z,63.42
2018-09-30T23:43:42.101Z,66.90
2018-09-30T23:46:16.766Z,34.35
2018-09-30T23:48:51.748Z,23.65
2018-09-30T23:51:26.369Z,22.48
2018-09-30T23:54:03.821Z,25.92
2018-09-30T23:56:38.486Z,22.87
2018-09-30T23:59:12.979Z,23.98
